createdAt,value
2019-02-27T00:01:35.296Z,31.77
2019-02-27T00:03:40.425Z,25.20
2019-02-27T00:05:45.167Z,30.10
2019-02-27T00:07:51.949Z,28.03
2019-02-27T00:09:57.082Z,28.50
2019-02-27T00:12:02.021Z,24.67
2019-02-27T00:14:07.030Z,28.03
2019-02-27T00:16:11.905Z,23.77
2019-02-27T00:18:16.829Z,24.13
2019-02-27T00:20:22.126Z,24.27
2019-02-27T00:22:27.202Z,27.03
2019-02-27T00:24:32.608Z,27.67
2019-02-27T00:26:39.551Z,28.00
2019-02-27T00:28:44.151Z,24.73
2019-02-27T00:30:49.081Z,26.53
2019-02-27T00:32:54.000Z,27.30
2019-02-27T00:34:58.918Z,34.43
2019-02-27T00:37:04.600Z,27.27
2019-02-27T00:39:09.640Z,27.40
2019-02-27T00:41:14.861Z,27.23
2019-02-27T00:43:19.748Z,27.20
2019-02-27T00:45:24.683Z,26.37
2019-02-27T00:47:29.592Z,31.10
2019-02-27T00:49:34.524Z,24.87
2019-02-27T00:51:39.638Z,27.53
2019-02-27T00:53:44.956Z,24.13
2019-02-27T00:55:49.834Z,32.43
2019-02-27T00:57:55.023Z,36.50
2019-02-27T00:59:59.937Z,27.20
2019-02-27T01:02:05.276Z,29.17
2019-02-27T01:04:10.797Z,27.80
2019-02-27T01:06:16.158Z,29.00
2019-02-27T01:08:21.127Z,29.40
2019-02-27T01:10:26.199Z,29.13
2019-02-27T01:12:31.081Z,24.53
2019-02-27T01:14:37.167Z,35.20
2019-02-27T01:16:42.941Z,24.10
2019-02-27T01:18:48.402Z,33.50
2019-02-27T01:20:53.394Z,27.90
2019-02-27T01:22:58.273Z,26.10
2019-02-27T01:25:03.212Z,31.03
2019-02-27T01:27:08.198Z,31.03
2019-02-27T01:29:13.062Z,25.70
2019-02-27T01:31:17.986Z,29.97
2019-02-27T01:33:23.282Z,24.53
2019-02-27T01:35:28.220Z,28.20
2019-02-27T01:37:33.120Z,28.53
2019-02-27T01:39:38.350Z,25.47
2019-02-27T01:41:43.125Z,32.83
2019-02-27T01:43:47.997Z,28.27
2019-02-27T01:46:00.819Z,28.70
2019-02-27T01:48:08.941Z,28.60
2019-02-27T01:50:38.662Z,24.83
2019-02-27T01:52:44.708Z,27.90
2019-02-27T01:54:49.990Z,28.73
2019-02-27T01:57:30.709Z,24.90
2019-02-27T01:59:36.955Z,32.03
2019-02-27T02:01:42.303Z,23.27
2019-02-27T02:03:48.135Z,34.30
2019-02-27T02:05:58.827Z,28.77
2019-02-27T02:08:04.060Z,31.97
2019-02-27T02:10:09.516Z,30.80
2019-02-27T02:12:17.184Z,30.73
2019-02-27T02:14:54.364Z,25.17
2019-02-27T02:17:20.505Z,27.37
2019-02-27T02:20:09.263Z,26.70
2019-02-27T02:22:41.323Z,28.13
2019-02-27T02:25:12.929Z,27.90
2019-02-27T02:28:01.627Z,30.17
2019-02-27T02:30:45.468Z,23.90
2019-02-27T02:33:20.086Z,25.20
2019-02-27T02:35:50.665Z,27.03
2019-02-27T02:38:22.549Z,28.80
2019-02-27T02:40:58.390Z,29.40
2019-02-27T02:43:39.972Z,26.73
2019-02-27T02:46:00.207Z,31.73
2019-02-27T02:48:37.922Z,26.93
2019-02-27T02:51:29.112Z,39.63
2019-02-27T02:54:19.834Z,25.37
2019-02-27T02:57:05.090Z,31.47
2019-02-27T02:59:46.963Z,29.97
2019-02-27T03:02:13.709Z,23.50
2019-02-27T03:04:49.284Z,27.90
2019-02-27T03:07:27.155Z,30.03
2019-02-27T03:10:07.041Z,31.60
2019-02-27T03:12:35.069Z,30.00
2019-02-27T03:15:05.171Z,26.73
2019-02-27T03:17:36.224Z,39.23
2019-02-27T03:20:19.435Z,29.93
2019-02-27T03:23:08.752Z,26.37
2019-02-27T03:25:40.860Z,27.10
2019-02-27T03:28:14.436Z,26.43
2019-02-27T03:31:01.222Z,25.37
2019-02-27T03:34:09.043Z,25.00
2019-02-27T03:36:53.444Z,28.20
2019-02-27T03:39:42.133Z,30.00
2019-02-27T03:42:18.821Z,23.63
2019-02-27T03:45:06.635Z,29.53
2019-02-27T03:47:41.359Z,24.57
2019-02-27T03:50:26.278Z,28.27
2019-02-27T03:53:11.230Z,26.10
2019-02-27T03:55:50.985Z,27.27
2019-02-27T03:58:34.374Z,27.53
2019-02-27T04:01:08.671Z,27.00
2019-02-27T04:03:42.202Z,28.43
2019-02-27T04:06:21.483Z,31.40
2019-02-27T04:08:56.716Z,27.47
2019-02-27T04:11:05.462Z,34.70
2019-02-27T04:13:08.988Z,28.87
2019-02-27T04:15:17.656Z,34.47
2019-02-27T04:17:28.223Z,28.33
2019-02-27T04:19:38.833Z,32.10
2019-02-27T04:21:40.808Z,31.27
2019-02-27T04:23:49.008Z,33.97
2019-02-27T04:25:55.255Z,33.40
2019-02-27T04:28:00.824Z,29.97
2019-02-27T04:30:06.592Z,29.33
2019-02-27T04:32:12.499Z,36.57
2019-02-27T04:34:18.632Z,29.23
2019-02-27T04:36:23.526Z,29.03
2019-02-27T04:38:28.750Z,29.73
2019-02-27T04:40:33.953Z,31.00
2019-02-27T04:42:39.363Z,36.50
2019-02-27T04:44:44.491Z,25.97
2019-02-27T04:46:54.852Z,30.07
2019-02-27T04:48:57.802Z,28.83
2019-02-27T04:51:02.911Z,30.70
2019-02-27T04:53:14.134Z,23.77
2019-02-27T04:55:40.504Z,26.23
2019-02-27T04:57:53.552Z,40.10
2019-02-27T04:59:58.787Z,35.17
2019-02-27T05:02:03.747Z,33.50
2019-02-27T05:04:08.644Z,29.63
2019-02-27T05:06:14.567Z,31.53
2019-02-27T05:08:19.926Z,30.77
2019-02-27T05:10:25.159Z,28.47
2019-02-27T05:12:29.914Z,41.53
2019-02-27T05:14:35.192Z,28.00
2019-02-27T05:16:40.334Z,26.17
2019-02-27T05:18:45.150Z,32.13
2019-02-27T05:20:50.029Z,39.93
2019-02-27T05:22:55.156Z,29.10
2019-02-27T05:25:01.479Z,28.90
2019-02-27T05:27:06.255Z,28.67
2019-02-27T05:29:11.172Z,28.00
2019-02-27T05:31:18.303Z,38.63
2019-02-27T05:33:22.927Z,26.43
2019-02-27T05:35:51.513Z,31.50
2019-02-27T05:38:23.898Z,22.93
2019-02-27T05:40:28.654Z,27.60
2019-02-27T05:42:33.737Z,33.17
2019-02-27T05:44:38.655Z,34.73
2019-02-27T05:46:43.535Z,36.03
2019-02-27T05:48:50.922Z,30.77
2019-02-27T05:50:55.494Z,35.03
2019-02-27T05:53:00.428Z,29.47
2019-02-27T05:55:06.441Z,35.30
2019-02-27T05:57:11.834Z,30.53
2019-02-27T05:59:16.794Z,28.90
2019-02-27T06:01:21.604Z,24.80
2019-02-27T06:03:27.300Z,26.10
2019-02-27T06:05:33.691Z,35.87
2019-02-27T06:07:38.905Z,27.57
2019-02-27T06:09:44.503Z,26.03
2019-02-27T06:11:49.467Z,30.13
2019-02-27T06:13:54.298Z,26.83
2019-02-27T06:16:02.892Z,25.53
2019-02-27T06:18:05.527Z,32.93
2019-02-27T06:20:10.422Z,28.13
2019-02-27T06:22:15.296Z,26.27
2019-02-27T06:25:07.856Z,25.50
2019-02-27T06:27:13.046Z,27.90
2019-02-27T06:30:20.966Z,29.53
2019-02-27T06:41:30.698Z,31.50
2019-02-27T06:46:38.547Z,30.97
2019-02-27T06:48:44.099Z,34.10
2019-02-27T06:50:50.580Z,27.73
2019-02-27T06:52:55.329Z,25.97
2019-02-27T06:55:00.253Z,21.03
2019-02-27T06:57:07.538Z,24.40
2019-02-27T06:59:11.434Z,25.20
2019-02-27T07:01:16.437Z,25.27
2019-02-27T07:03:21.193Z,27.17
2019-02-27T07:05:25.913Z,30.40
2019-02-27T07:07:31.316Z,26.40
2019-02-27T07:09:36.773Z,34.03
2019-02-27T07:11:46.387Z,35.30
2019-02-27T07:13:51.145Z,31.90
2019-02-27T07:15:56.658Z,24.57
2019-02-27T07:18:03.430Z,30.77
2019-02-27T07:20:08.919Z,27.33
2019-02-27T07:22:13.841Z,21.60
2019-02-27T07:24:19.003Z,20.90
2019-02-27T07:26:23.915Z,31.17
2019-02-27T07:28:54.091Z,25.43
2019-02-27T07:30:59.041Z,25.40
2019-02-27T07:33:06.646Z,19.63
2019-02-27T07:35:10.843Z,30.30
2019-02-27T07:37:15.772Z,26.33
2019-02-27T07:39:20.724Z,29.03
2019-02-27T07:41:25.576Z,21.33
2019-02-27T07:43:30.398Z,16.60
2019-02-27T07:45:35.277Z,23.57
2019-02-27T07:47:40.449Z,32.43
2019-02-27T07:49:45.275Z,26.53
2019-02-27T07:51:50.061Z,18.93
2019-02-27T07:53:54.954Z,15.10
2019-02-27T07:56:00.152Z,14.45
2019-02-27T07:58:05.247Z,14.50
2019-02-27T08:00:15.163Z,15.35
2019-02-27T08:02:19.626Z,15.93
2019-02-27T08:04:24.458Z,9.80
2019-02-27T08:06:29.288Z,12.13
2019-02-27T08:08:34.449Z,10.18
2019-02-27T08:10:39.546Z,12.60
2019-02-27T08:12:44.391Z,13.93
2019-02-27T08:14:49.523Z,11.33
2019-02-27T08:16:57.195Z,19.00
2019-02-27T08:19:01.271Z,12.40
2019-02-27T08:21:06.586Z,11.05
2019-02-27T08:23:11.580Z,12.82
2019-02-27T08:25:19.769Z,9.98
2019-02-27T08:27:25.326Z,9.90
2019-02-27T08:29:30.327Z,15.05
2019-02-27T08:31:35.582Z,15.40
2019-02-27T08:33:41.724Z,10.75
2019-02-27T08:35:46.554Z,7.78
2019-02-27T08:37:51.533Z,8.60
2019-02-27T08:39:56.346Z,9.58
2019-02-27T08:42:03.541Z,10.72
2019-02-27T08:44:12.352Z,16.52
2019-02-27T08:46:28.201Z,8.55
2019-02-27T08:48:33.079Z,10.20
2019-02-27T08:50:37.961Z,11.18
2019-02-27T08:52:44.493Z,13.80
2019-02-27T08:54:49.612Z,16.05
2019-02-27T08:56:54.798Z,15.98
2019-02-27T08:58:59.549Z,15.38
2019-02-27T09:01:06.336Z,17.80
2019-02-27T09:03:19.949Z,15.67
2019-02-27T09:05:20.021Z,18.23
2019-02-27T09:07:24.128Z,14.53
2019-02-27T09:09:28.839Z,17.97
2019-02-27T09:11:33.669Z,13.67
2019-02-27T09:13:38.460Z,15.60
2019-02-27T09:15:43.339Z,13.40
2019-02-27T09:17:48.114Z,16.00
2019-02-27T09:19:52.828Z,12.93
2019-02-27T09:22:02.432Z,19.10
2019-02-27T09:24:07.351Z,17.93
2019-02-27T09:26:12.075Z,15.60
2019-02-27T09:28:16.859Z,17.23
2019-02-27T09:30:21.956Z,15.80
2019-02-27T09:32:26.755Z,21.60
2019-02-27T09:34:31.633Z,19.50
2019-02-27T09:36:36.420Z,25.03
2019-02-27T09:38:41.833Z,18.30
2019-02-27T09:40:47.394Z,24.43
2019-02-27T09:42:53.064Z,23.27
2019-02-27T09:44:58.628Z,21.53
2019-02-27T09:47:03.745Z,18.93
2019-02-27T09:49:08.633Z,33.27
2019-02-27T09:51:13.711Z,25.40
2019-02-27T09:53:18.426Z,24.27
2019-02-27T09:55:23.239Z,22.10
2019-02-27T09:57:28.128Z,23.70
2019-02-27T09:59:32.881Z,13.63
2019-02-27T10:01:37.721Z,17.60
2019-02-27T10:03:42.508Z,15.00
2019-02-27T10:05:51.263Z,19.53
2019-02-27T10:07:53.688Z,13.50
2019-02-27T10:09:58.464Z,20.00
2019-02-27T10:12:03.279Z,11.70
2019-02-27T10:14:08.089Z,16.12
2019-02-27T10:16:12.807Z,16.67
2019-02-27T10:18:19.048Z,15.95
2019-02-27T10:20:24.552Z,19.07
2019-02-27T10:22:29.266Z,22.22
2019-02-27T10:24:36.880Z,18.52
2019-02-27T10:26:40.928Z,15.43
2019-02-27T10:28:46.053Z,16.52
2019-02-27T10:30:51.308Z,38.80
2019-02-27T10:32:56.031Z,27.15
2019-02-27T10:35:01.173Z,21.53
2019-02-27T10:37:06.043Z,18.10
2019-02-27T10:39:10.958Z,16.33
2019-02-27T10:41:16.059Z,18.07
2019-02-27T10:43:21.235Z,14.20
2019-02-27T10:45:26.166Z,14.90
2019-02-27T10:47:30.990Z,14.07
2019-02-27T10:49:38.120Z,19.00
2019-02-27T10:51:43.740Z,12.70
2019-02-27T10:53:50.349Z,13.85
2019-02-27T10:55:56.117Z,15.27
2019-02-27T10:58:01.378Z,22.93
2019-02-27T11:00:13.471Z,14.33
2019-02-27T11:02:18.388Z,10.50
2019-02-27T11:04:23.516Z,17.27
2019-02-27T11:06:34.055Z,12.95
2019-02-27T11:08:34.833Z,15.98
2019-02-27T11:10:40.064Z,17.02
2019-02-27T11:12:44.903Z,18.75
2019-02-27T11:14:49.631Z,15.38
2019-02-27T11:16:54.344Z,14.83
2019-02-27T11:18:59.129Z,17.75
2019-02-27T11:21:03.991Z,10.98
2019-02-27T11:23:10.074Z,17.67
2019-02-27T11:25:16.921Z,15.90
2019-02-27T11:27:21.702Z,11.63
2019-02-27T11:29:26.813Z,12.75
2019-02-27T11:31:31.590Z,16.20
2019-02-27T11:33:36.409Z,15.53
2019-02-27T11:35:41.681Z,20.12
2019-02-27T11:37:47.650Z,16.50
2019-02-27T11:39:52.961Z,12.60
2019-02-27T11:41:57.801Z,15.55
2019-02-27T11:44:02.836Z,15.95
2019-02-27T11:46:08.058Z,16.27
2019-02-27T11:48:13.461Z,11.60
2019-02-27T11:50:18.739Z,11.97
2019-02-27T11:52:27.808Z,17.83
2019-02-27T11:54:30.125Z,14.40
2019-02-27T11:56:35.279Z,15.00
2019-02-27T11:58:40.197Z,19.87
2019-02-27T12:00:45.218Z,21.07
2019-02-27T12:02:50.046Z,17.87
2019-02-27T12:04:56.656Z,17.00
2019-02-27T12:07:01.232Z,16.80
2019-02-27T12:09:07.893Z,18.60
2019-02-27T12:11:14.217Z,26.50
2019-02-27T12:13:19.031Z,14.97
2019-02-27T12:15:23.825Z,18.87
2019-02-27T12:17:28.753Z,19.17
2019-02-27T12:19:33.798Z,16.50
2019-02-27T12:21:39.307Z,18.43
2019-02-27T12:23:44.901Z,11.60
2019-02-27T12:25:50.069Z,14.53
2019-02-27T12:27:56.413Z,20.23
2019-02-27T12:30:03.033Z,14.27
2019-02-27T12:32:08.353Z,11.53
2019-02-27T12:34:13.436Z,16.17
2019-02-27T12:36:18.674Z,12.47
2019-02-27T12:38:24.546Z,18.53
2019-02-27T12:40:29.432Z,16.00
2019-02-27T12:42:37.250Z,18.13
2019-02-27T12:44:40.664Z,18.23
2019-02-27T12:46:45.398Z,14.97
2019-02-27T12:48:50.487Z,13.43
2019-02-27T12:50:55.284Z,17.50
2019-02-27T12:53:00.234Z,13.47
2019-02-27T12:55:05.392Z,18.40
2019-02-27T12:57:10.372Z,16.33
2019-02-27T12:59:15.195Z,17.27
2019-02-27T13:01:20.493Z,18.60
2019-02-27T13:03:25.207Z,16.60
2019-02-27T13:05:30.343Z,15.00
2019-02-27T13:07:35.453Z,15.17
2019-02-27T13:09:40.314Z,19.87
2019-02-27T13:11:45.079Z,13.50
2019-02-27T13:13:49.795Z,12.83
2019-02-27T13:15:54.509Z,18.20
2019-02-27T13:17:59.857Z,14.33
2019-02-27T13:20:06.099Z,20.33
2019-02-27T13:22:11.391Z,19.10
2019-02-27T13:24:16.344Z,24.77
2019-02-27T13:26:21.103Z,17.07
2019-02-27T13:28:27.983Z,16.20
2019-02-27T13:30:33.005Z,16.00
2019-02-27T13:32:37.739Z,14.77
2019-02-27T13:34:45.380Z,27.83
2019-02-27T13:36:50.492Z,20.70
2019-02-27T13:38:55.375Z,15.07
2019-02-27T13:41:02.526Z,11.77
2019-02-27T13:43:07.751Z,16.23
2019-02-27T13:45:17.873Z,24.07
2019-02-27T13:47:22.724Z,14.73
2019-02-27T13:49:29.509Z,14.10
2019-02-27T13:51:37.649Z,12.07
2019-02-27T13:53:41.860Z,18.00
2019-02-27T13:55:48.152Z,14.57
2019-02-27T13:57:53.150Z,14.07
2019-02-27T13:59:57.928Z,13.57
2019-02-27T14:02:12.378Z,15.17
2019-02-27T14:04:21.926Z,19.13
2019-02-27T14:06:24.077Z,17.60
2019-02-27T14:08:33.674Z,16.97
2019-02-27T14:10:38.920Z,13.00
2019-02-27T14:12:46.788Z,15.80
2019-02-27T14:14:53.276Z,21.43
2019-02-27T14:16:58.121Z,12.70
2019-02-27T14:19:02.920Z,12.80
2019-02-27T14:21:07.727Z,20.10
2019-02-27T14:23:14.572Z,21.50
2019-02-27T14:25:23.066Z,15.47
2019-02-27T14:27:33.838Z,10.77
2019-02-27T14:29:41.566Z,15.43
2019-02-27T14:31:46.291Z,12.87
2019-02-27T14:33:53.968Z,7.07
2019-02-27T14:36:00.806Z,10.60
2019-02-27T14:38:05.628Z,35.23
2019-02-27T14:40:13.096Z,8.83
2019-02-27T14:42:58.084Z,9.47
2019-02-27T14:45:05.608Z,13.70
2019-02-27T14:47:12.489Z,20.93
2019-02-27T14:49:17.307Z,7.53
2019-02-27T14:51:22.659Z,11.90
2019-02-27T14:53:28.132Z,8.90
2019-02-27T14:55:38.009Z,7.00
2019-02-27T14:57:43.660Z,7.80
2019-02-27T14:59:48.444Z,9.60
2019-02-27T15:01:53.512Z,13.40
2019-02-27T15:04:01.512Z,10.00
2019-02-27T15:06:06.786Z,9.10
2019-02-27T15:08:12.261Z,9.30
2019-02-27T15:10:18.108Z,8.13
2019-02-27T15:12:33.079Z,10.30
2019-02-27T15:14:37.880Z,9.20
2019-02-27T15:16:42.903Z,8.67
2019-02-27T15:18:47.803Z,12.67
2019-02-27T15:20:52.914Z,11.47
2019-02-27T15:22:58.192Z,10.93
2019-02-27T15:25:03.000Z,8.83
2019-02-27T15:27:08.208Z,11.80
2019-02-27T15:29:13.041Z,15.60
2019-02-27T15:31:18.108Z,11.63
2019-02-27T15:33:24.432Z,9.80
2019-02-27T15:35:29.723Z,17.20
2019-02-27T15:37:37.177Z,14.17
2019-02-27T15:39:40.965Z,14.50
2019-02-27T15:41:45.791Z,14.70
2019-02-27T15:43:59.721Z,12.07
2019-02-27T15:45:57.292Z,14.20
2019-02-27T15:48:06.252Z,10.70
2019-02-27T15:50:10.070Z,12.80
2019-02-27T15:52:15.291Z,16.57
2019-02-27T15:54:23.935Z,12.93
2019-02-27T15:56:28.777Z,22.33
2019-02-27T15:58:37.793Z,22.27
2019-02-27T16:00:42.837Z,11.00
2019-02-27T16:02:50.112Z,12.90
2019-02-27T16:04:59.892Z,17.47
2019-02-27T16:07:04.688Z,15.93
2019-02-27T16:09:10.672Z,23.23
2019-02-27T16:11:16.566Z,19.83
2019-02-27T16:13:24.700Z,18.93
2019-02-27T16:15:29.617Z,15.80
2019-02-27T16:17:34.349Z,19.60
2019-02-27T16:19:39.195Z,14.73
2019-02-27T16:21:43.956Z,14.60
2019-02-27T16:23:56.864Z,16.90
2019-02-27T16:26:02.360Z,15.80
2019-02-27T16:28:11.352Z,12.40
2019-02-27T16:30:17.525Z,18.13
2019-02-27T16:32:22.691Z,20.07
2019-02-27T16:34:29.622Z,13.80
2019-02-27T16:36:36.373Z,14.37
2019-02-27T16:38:41.325Z,14.03
2019-02-27T16:40:46.127Z,14.67
2019-02-27T16:42:51.290Z,15.90
2019-02-27T16:44:57.392Z,15.67
2019-02-27T16:47:03.613Z,13.83
2019-02-27T16:49:10.144Z,19.13
2019-02-27T16:51:15.131Z,18.97
2019-02-27T16:53:20.351Z,19.30
2019-02-27T16:55:25.431Z,21.97
2019-02-27T16:57:33.342Z,21.10
2019-02-27T16:59:38.184Z,15.50
2019-02-27T17:01:43.140Z,17.63
2019-02-27T17:03:56.396Z,15.40
2019-02-27T17:05:54.459Z,15.40
2019-02-27T17:08:02.004Z,19.63
2019-02-27T17:10:07.085Z,21.53
2019-02-27T17:12:11.997Z,19.67
2019-02-27T17:14:16.901Z,16.90
2019-02-27T17:16:21.737Z,20.27
2019-02-27T17:18:28.294Z,15.70
2019-02-27T17:20:34.416Z,23.73
2019-02-27T17:22:39.273Z,22.17
2019-02-27T17:24:45.303Z,32.60
2019-02-27T17:26:50.108Z,25.87
2019-02-27T17:28:55.345Z,20.57
2019-02-27T17:31:01.879Z,28.20
2019-02-27T17:33:07.092Z,17.00
2019-02-27T17:35:11.980Z,22.10
2019-02-27T17:37:17.171Z,31.93
2019-02-27T17:39:26.725Z,23.80
2019-02-27T17:41:29.426Z,29.57
2019-02-27T17:43:34.247Z,17.57
2019-02-27T17:45:39.185Z,26.43
2019-02-27T17:48:55.274Z,28.13
2019-02-27T17:51:10.097Z,20.83
2019-02-27T17:53:14.914Z,24.50
2019-02-27T17:55:19.949Z,28.03
2019-02-27T17:57:25.208Z,27.07
2019-02-27T17:59:30.207Z,24.30
2019-02-27T18:01:35.056Z,20.03
2019-02-27T18:03:42.176Z,23.57
2019-02-27T18:05:47.242Z,21.90
2019-02-27T18:07:53.625Z,18.90
2019-02-27T18:10:01.128Z,19.27
2019-02-27T18:12:07.491Z,17.97
2019-02-27T18:14:12.471Z,40.93
2019-02-27T18:16:17.644Z,28.03
2019-02-27T18:18:22.426Z,26.63
2019-02-27T18:20:27.224Z,17.93
2019-02-27T18:22:32.010Z,18.73
2019-02-27T18:24:36.854Z,23.70
2019-02-27T18:26:41.656Z,23.00
2019-02-27T18:28:46.683Z,24.83
2019-02-27T18:30:53.729Z,37.30
2019-02-27T18:33:01.195Z,39.50
2019-02-27T18:35:15.798Z,46.70
2019-02-27T18:37:21.763Z,53.90
2019-02-27T18:39:28.060Z,50.90
2019-02-27T18:41:33.373Z,57.53
2019-02-27T18:43:39.646Z,48.20
2019-02-27T18:45:45.218Z,41.67
2019-02-27T18:47:50.405Z,55.87
2019-02-27T18:49:55.718Z,44.73
2019-02-27T18:52:00.931Z,36.33
2019-02-27T18:54:06.150Z,40.43
2019-02-27T18:56:11.166Z,33.97
2019-02-27T18:58:18.220Z,22.67
2019-02-27T19:00:24.707Z,30.13
2019-02-27T19:06:25.645Z,24.90
2019-02-27T19:08:52.597Z,23.70
2019-02-27T19:23:54.011Z,35.60
2019-02-27T19:36:35.129Z,39.17
2019-02-27T19:39:29.877Z,22.30
2019-02-27T19:42:19.111Z,31.37
2019-02-27T19:54:18.562Z,39.03
2019-02-27T19:56:23.617Z,24.30
2019-02-27T19:58:28.622Z,22.33
2019-02-27T20:00:35.190Z,27.80
2019-02-27T20:02:40.709Z,20.07
2019-02-27T20:04:46.049Z,21.17
2019-02-27T20:06:51.398Z,25.80
2019-02-27T20:08:57.027Z,25.20
2019-02-27T20:11:05.680Z,31.93
2019-02-27T20:13:09.772Z,30.27
2019-02-27T20:15:16.130Z,28.00
2019-02-27T20:17:21.334Z,30.87
2019-02-27T20:19:29.044Z,37.70
2019-02-27T20:21:32.953Z,26.17
2019-02-27T20:23:39.337Z,27.70
2019-02-27T20:25:44.544Z,26.60
2019-02-27T20:27:49.783Z,28.40
2019-02-27T20:29:54.648Z,19.73
2019-02-27T20:32:01.781Z,21.53
2019-02-27T20:34:10.662Z,24.60
2019-02-27T20:36:13.779Z,68.20
2019-02-27T20:38:18.979Z,24.60
2019-02-27T20:40:24.252Z,25.80
2019-02-27T20:42:29.563Z,26.77
2019-02-27T20:44:37.372Z,35.40
2019-02-27T20:46:40.819Z,33.10
2019-02-27T20:48:45.601Z,25.57
2019-02-27T20:50:50.565Z,32.97
2019-02-27T20:52:55.354Z,31.23
2019-02-27T20:55:00.413Z,27.17
2019-02-27T20:57:08.215Z,27.60
2019-02-27T20:59:12.382Z,25.37
2019-02-27T21:01:20.382Z,26.13
2019-02-27T21:03:27.264Z,29.60
2019-02-27T21:05:31.787Z,28.57
2019-02-27T21:07:38.695Z,33.63
2019-02-27T21:09:45.206Z,45.77
2019-02-27T21:11:50.244Z,27.70
2019-02-27T21:13:59.964Z,29.60
2019-02-27T21:16:27.151Z,30.87
2019-02-27T21:18:32.586Z,36.70
2019-02-27T21:20:38.071Z,28.43
2019-02-27T21:22:43.902Z,30.33
2019-02-27T21:24:49.072Z,30.50
2019-02-27T21:26:54.192Z,29.93
2019-02-27T21:28:59.214Z,42.97
2019-02-27T21:31:03.939Z,37.77
2019-02-27T21:33:11.224Z,34.53
2019-02-27T21:35:15.348Z,38.57
2019-02-27T21:37:20.139Z,38.07
2019-02-27T21:39:26.895Z,36.20
2019-02-27T21:41:31.883Z,38.60
2019-02-27T21:43:37.163Z,36.33
2019-02-27T21:45:44.914Z,45.40
2019-02-27T21:47:51.749Z,38.50
2019-02-27T21:49:56.973Z,35.87
2019-02-27T21:52:01.719Z,49.00
2019-02-27T21:54:06.516Z,42.17
2019-02-27T21:56:11.336Z,37.90
2019-02-27T21:58:20.288Z,37.90
2019-02-27T22:00:24.036Z,37.97
2019-02-27T22:02:30.648Z,47.03
2019-02-27T22:04:35.882Z,44.40
2019-02-27T22:06:41.781Z,43.07
2019-02-27T22:08:47.032Z,38.00
2019-02-27T22:10:53.746Z,38.50
2019-02-27T22:12:59.119Z,42.43
2019-02-27T22:15:05.445Z,37.70
2019-02-27T22:17:10.326Z,40.00
2019-02-27T22:19:15.101Z,41.33
2019-02-27T22:21:19.894Z,37.40
2019-02-27T22:23:26.143Z,42.60
2019-02-27T22:25:32.890Z,40.90
2019-02-27T22:27:37.974Z,39.63
2019-02-27T22:29:43.518Z,40.13
2019-02-27T22:31:48.722Z,39.80
2019-02-27T22:33:56.167Z,47.50
2019-02-27T22:36:00.476Z,39.27
2019-02-27T22:38:05.865Z,40.17
2019-02-27T22:40:12.725Z,40.33
2019-02-27T22:42:17.517Z,38.03
2019-02-27T22:44:22.293Z,43.00
2019-02-27T22:46:27.150Z,47.23
2019-02-27T22:48:31.969Z,45.97
2019-02-27T22:50:38.387Z,37.97
2019-02-27T22:52:43.302Z,42.73
2019-02-27T22:54:48.903Z,42.50
2019-02-27T22:56:55.179Z,40.40
2019-02-27T22:59:02.972Z,43.73
2019-02-27T23:01:14.973Z,42.93
2019-02-27T23:03:23.753Z,42.37
2019-02-27T23:05:27.749Z,40.87
2019-02-27T23:07:32.680Z,41.77
2019-02-27T23:09:38.163Z,45.63
2019-02-27T23:11:44.007Z,49.20
2019-02-27T23:13:50.318Z,36.30
2019-02-27T23:15:58.043Z,40.57
2019-02-27T23:18:02.488Z,45.90
2019-02-27T23:20:09.858Z,42.20
2019-02-27T23:22:14.585Z,37.87
2019-02-27T23:24:19.609Z,47.60
2019-02-27T23:26:24.447Z,39.07
2019-02-27T23:28:34.462Z,43.37
2019-02-27T23:30:36.126Z,48.40
2019-02-27T23:32:41.068Z,49.37
2019-02-27T23:34:45.883Z,44.80
2019-02-27T23:36:55.637Z,40.90
2019-02-27T23:38:58.218Z,53.20
2019-02-27T23:41:03.079Z,41.93
2019-02-27T23:43:08.030Z,45.07
2019-02-27T23:45:13.143Z,46.60
2019-02-27T23:47:17.935Z,50.20
2019-02-27T23:49:22.754Z,47.93
2019-02-27T23:51:28.678Z,40.47
2019-02-27T23:53:33.883Z,47.93
2019-02-27T23:55:44.149Z,51.50
2019-02-27T23:57:47.198Z,49.10
2019-02-27T23:59:53.226Z,49.20
